Time;durP1;ratioP1;P1;durP2;ratioP2;P2;SDS_P1;SDS_P2;PMS_P1;PMS_P2;Temp;Humidity;BMP_temperature;BMP_pressure;BME280_temperature;BME280_humidity;BME280_pressure;Samples;Min_cycle;Max_cycle;Signal;HPM_P1;HPM_P2
2021/08/27 01:05:33;;;;;;;;;;;17.80;99.90;;;;;;2619479;54;19970;-70
2021/08/27 01:08:03;;;;;;;;;;;17.20;99.90;;;;;;2619949;54;19942;-69
2021/08/27 01:10:29;;;;;;;;;;;17.20;99.90;;;;;;2620277;39;20345;-71
2021/08/27 01:13:02;;;;;;;;;;;17.00;99.90;;;;;;2620007;54;19961;-70
2021/08/27 01:15:30;;;;;;;;;;;17.00;99.90;;;;;;2620159;46;19958;-70
2021/08/27 01:18:03;;;;;;;;;;;17.10;99.90;;;;;;2619681;54;19942;-69
2021/08/27 01:20:47;;;;;;;;;;;17.10;99.90;;;;;;2619721;54;20029;-70
2021/08/27 01:23:23;;;;;;;;;;;17.10;99.90;;;;;;2619378;46;19945;-70
2021/08/27 01:25:51;;;;;;;;;;;17.10;99.90;;;;;;2619338;46;19961;-70
2021/08/27 01:28:19;;;;;;;;;;;17.20;99.90;;;;;;2619577;54;19978;-70
2021/08/27 01:30:48;;;;;;;;;;;17.20;99.90;;;;;;2619321;46;19945;-70
2021/08/27 01:33:15;;;;;;;;;;;17.10;99.90;;;;;;2619725;54;19939;-69
2021/08/27 01:35:46;;;;;;;;;;;17.10;99.90;;;;;;2619118;46;19938;-70
2021/08/27 01:38:13;;;;;;;;;;;17.10;99.90;;;;;;2619887;54;19943;-69
2021/08/27 01:40:40;;;;;;;;;;;17.10;99.90;;;;;;2619690;54;19945;-69
2021/08/27 01:43:08;;;;;;;;;;;17.20;99.90;;;;;;2619651;54;19939;-70
2021/08/27 01:45:35;;;;;;;;;;;17.20;99.90;;;;;;2619844;54;19939;-69
2021/08/27 01:48:05;;;;;;;;;;;17.20;99.90;;;;;;2619303;46;20402;-69
2021/08/27 01:50:30;;;;;;;;;;;17.00;99.90;;;;;;2619222;46;19951;-71
2021/08/27 01:52:59;;;;;;;;;;;16.90;99.90;;;;;;2619299;46;19939;-70
2021/08/27 01:55:26;;;;;;;;;;;16.90;99.90;;;;;;2620052;54;19939;-72
2021/08/27 01:57:52;;;;;;;;;;;16.70;99.90;;;;;;2619327;46;19966;-71
2021/08/27 02:00:18;;;;;;;;;;;16.70;99.90;;;;;;2619559;46;20022;-71
2021/08/27 02:02:44;;;;;;;;;;;16.70;99.90;;;;;;2619847;54;19962;-72
2021/08/27 02:05:10;;;;;;;;;;;16.70;99.90;;;;;;2618474;54;19938;-71
2021/08/27 02:07:36;;;;;;;;;;;16.60;99.90;;;;;;2619906;54;19939;-71
2021/08/27 02:10:05;;;;;;;;;;;16.60;99.90;;;;;;2619530;46;19938;-71
2021/08/27 02:12:30;;;;;;;;;;;16.60;99.90;;;;;;2618716;54;19946;-73
2021/08/27 02:14:57;;;;;;;;;;;16.50;99.90;;;;;;2620189;54;19938;-72
2021/08/27 02:17:23;;;;;;;;;;;16.50;99.90;;;;;;2620228;39;20353;-72
2021/08/27 02:19:49;;;;;;;;;;;16.50;99.90;;;;;;2619446;46;19939;-71
2021/08/27 02:22:16;;;;;;;;;;;16.50;99.90;;;;;;2620142;54;20470;-72
2021/08/27 02:24:44;;;;;;;;;;;16.40;99.90;;;;;;2619884;54;19938;-71
2021/08/27 02:27:13;;;;;;;;;;;16.40;99.90;;;;;;2619879;54;19962;-70
2021/08/27 02:29:39;;;;;;;;;;;16.30;99.90;;;;;;2619469;46;19945;-72
2021/08/27 02:32:07;;;;;;;;;;;16.30;99.90;;;;;;2618951;47;19946;-71
2021/08/27 02:34:34;;;;;;;;;;;16.30;99.90;;;;;;2620726;54;19942;-73
2021/08/27 02:37:02;;;;;;;;;;;16.30;99.90;;;;;;2624805;46;19939;-73
2021/08/27 02:39:29;;;;;;;;;;;16.30;99.90;;;;;;2625487;54;19939;-74
2021/08/27 02:41:55;;;;;;;;;;;16.30;99.90;;;;;;2626013;39;20318;-72
2021/08/27 02:44:24;;;;;;;;;;;16.20;99.90;;;;;;2626877;54;19982;-72
2021/08/27 02:46:50;;;;;;;;;;;16.20;99.90;;;;;;2620375;54;19939;-72
2021/08/27 02:49:17;;;;;;;;;;;16.20;99.90;;;;;;2620413;31;20417;-71
2021/08/27 02:51:45;;;;;;;;;;;16.20;99.90;;;;;;2619288;47;19945;-72
2021/08/27 02:54:14;;;;;;;;;;;16.10;99.90;;;;;;2619612;54;19955;-72
2021/08/27 02:56:41;;;;;;;;;;;16.00;99.90;;;;;;2619935;54;19938;-70
2021/08/27 02:59:11;;;;;;;;;;;15.90;99.90;;;;;;2619411;54;19947;-71
2021/08/27 03:01:49;;;;;;;;;;;15.90;99.90;;;;;;2618624;54;19943;-70
2021/08/27 03:04:18;;;;;;;;;;;15.80;99.90;;;;;;2619569;47;20357;-74
2021/08/27 03:06:48;;;;;;;;;;;15.80;99.90;;;;;;2620127;54;19938;-71
2021/08/27 03:09:14;;;;;;;;;;;15.70;99.90;;;;;;2619557;54;19938;-71
2021/08/27 03:11:41;;;;;;;;;;;15.70;99.90;;;;;;2619549;54;19946;-71
2021/08/27 03:14:09;;;;;;;;;;;15.80;99.90;;;;;;2618894;47;19938;-70
2021/08/27 03:16:38;;;;;;;;;;;16.20;99.90;;;;;;2619372;54;20022;-70
2021/08/27 03:19:07;;;;;;;;;;;16.60;99.90;;;;;;2619346;54;19939;-71
2021/08/27 03:21:35;;;;;;;;;;;16.70;99.90;;;;;;2619384;54;19945;-71
2021/08/27 03:24:02;;;;;;;;;;;16.80;99.90;;;;;;2619412;54;20518;-70
2021/08/27 03:26:29;;;;;;;;;;;16.70;99.90;;;;;;2619331;54;19965;-70
2021/08/27 03:28:59;;;;;;;;;;;16.60;99.90;;;;;;2619260;54;19962;-71
2021/08/27 03:31:25;;;;;;;;;;;16.40;99.90;;;;;;2619285;54;19947;-70
2021/08/27 03:33:53;;;;;;;;;;;16.30;99.90;;;;;;2618837;47;19951;-72
2021/08/27 03:36:24;;;;;;;;;;;16.30;99.90;;;;;;2619308;54;19939;-70
2021/08/27 03:38:49;;;;;;;;;;;16.40;99.90;;;;;;2619342;54;20399;-71
2021/08/27 03:41:16;;;;;;;;;;;16.70;99.90;;;;;;2618671;47;19974;-69
2021/08/27 03:43:42;;;;;;;;;;;16.90;99.40;;;;;;2619193;54;20438;-70
2021/08/27 03:46:08;;;;;;;;;;;17.10;99.90;;;;;;2619218;54;19942;-70
2021/08/27 03:48:34;;;;;;;;;;;17.00;99.90;;;;;;2619026;54;19946;-70
2021/08/27 03:51:00;;;;;;;;;;;16.90;99.90;;;;;;2618431;47;19942;-69
2021/08/27 03:53:29;;;;;;;;;;;16.80;99.90;;;;;;2618749;47;19963;-70
2021/08/27 03:55:55;;;;;;;;;;;16.70;99.90;;;;;;2619215;54;19990;-71
2021/08/27 03:58:22;;;;;;;;;;;16.60;99.90;;;;;;2618569;47;20406;-71
2021/08/27 04:00:48;;;;;;;;;;;16.50;99.90;;;;;;2620133;39;20330;-70
2021/08/27 04:03:14;;;;;;;;;;;16.40;99.90;;;;;;2618696;47;19939;-70
2021/08/27 04:05:55;;;;;;;;;;;16.40;99.90;;;;;;2618420;47;19938;-70
2021/08/27 04:08:20;;;;;;;;;;;16.30;99.90;;;;;;2618708;47;19943;-70
2021/08/27 04:10:49;;;;;;;;;;;16.30;99.90;;;;;;2618642;47;20003;-71
2021/08/27 04:13:14;;;;;;;;;;;16.20;99.90;;;;;;2618623;47;19938;-71
2021/08/27 04:15:40;;;;;;;;;;;16.10;99.90;;;;;;2618614;47;19939;-69
2021/08/27 04:18:06;;;;;;;;;;;16.10;99.90;;;;;;2618587;47;19943;-70
2021/08/27 04:20:31;;;;;;;;;;;16.10;99.90;;;;;;2619064;54;19950;-71
2021/08/27 04:22:57;;;;;;;;;;;16.10;99.90;;;;;;2618306;47;19942;-68
2021/08/27 04:25:23;;;;;;;;;;;16.20;99.90;;;;;;2619056;54;19939;-68
2021/08/27 04:27:51;;;;;;;;;;;16.10;99.90;;;;;;2619777;31;20371;-69
2021/08/27 04:30:17;;;;;;;;;;;16.20;99.90;;;;;;2618409;47;20075;-69
2021/08/27 04:32:43;;;;;;;;;;;16.30;99.90;;;;;;2618797;39;20338;-69
2021/08/27 04:35:09;;;;;;;;;;;16.50;99.90;;;;;;2618309;47;19942;-68
2021/08/27 04:37:34;;;;;;;;;;;16.60;99.90;;;;;;2618902;54;19989;-68
2021/08/27 04:40:00;;;;;;;;;;;16.90;98.30;;;;;;2618436;47;19946;-70
2021/08/27 04:42:26;;;;;;;;;;;17.20;96.40;;;;;;2619058;54;19938;-68
2021/08/27 04:44:54;;;;;;;;;;;17.50;96.00;;;;;;2618989;54;19995;-69
2021/08/27 04:47:20;;;;;;;;;;;17.70;94.70;;;;;;2618255;47;19981;-68
2021/08/27 04:49:46;;;;;;;;;;;18.00;94.00;;;;;;2618395;47;20406;-68
2021/08/27 04:52:12;;;;;;;;;;;18.20;93.70;;;;;;2618883;54;19962;-67
2021/08/27 04:54:37;;;;;;;;;;;18.40;92.50;;;;;;2618936;54;19963;-68
2021/08/27 04:57:03;;;;;;;;;;;18.60;92.70;;;;;;2618855;54;19943;-69
2021/08/27 04:59:29;;;;;;;;;;;18.70;92.60;;;;;;2618333;47;19939;-69
2021/08/27 05:02:00;;;;;;;;;;;18.70;92.00;;;;;;2619370;39;20345;-70
2021/08/27 05:04:26;;;;;;;;;;;18.80;90.90;;;;;;2619460;54;19961;-71
2021/08/27 05:06:52;;;;;;;;;;;18.90;91.10;;;;;;2619519;54;19938;-70
2021/08/27 05:09:19;;;;;;;;;;;18.90;90.90;;;;;;2619870;54;19939;-70
2021/08/27 05:11:45;;;;;;;;;;;19.00;90.30;;;;;;2619816;54;19962;-70
2021/08/27 05:14:10;;;;;;;;;;;19.10;90.20;;;;;;2619263;46;19939;-70
2021/08/27 05:16:36;;;;;;;;;;;19.10;90.80;;;;;;2619660;54;19943;-70
2021/08/27 05:19:04;;;;;;;;;;;19.10;90.30;;;;;;2619105;46;19938;-70
2021/08/27 05:21:30;;;;;;;;;;;19.10;90.40;;;;;;2619644;39;20326;-71
2021/08/27 05:23:56;;;;;;;;;;;19.10;89.70;;;;;;2619588;54;19950;-71
2021/08/27 05:26:22;;;;;;;;;;;19.20;89.50;;;;;;2619637;54;19938;-70
2021/08/27 05:28:49;;;;;;;;;;;19.20;89.20;;;;;;2618924;47;19947;-73
2021/08/27 05:31:15;;;;;;;;;;;19.30;90.00;;;;;;2619536;54;19945;-70
2021/08/27 05:33:41;;;;;;;;;;;19.30;90.50;;;;;;2620172;39;20350;-69
2021/08/27 05:36:09;;;;;;;;;;;19.30;88.30;;;;;;2619043;47;19942;-69
2021/08/27 05:38:35;;;;;;;;;;;19.40;87.60;;;;;;2619567;54;19939;-70
2021/08/27 05:41:02;;;;;;;;;;;19.40;88.40;;;;;;2619973;46;19977;-73
2021/08/27 05:43:27;;;;;;;;;;;19.50;89.10;;;;;;2619667;54;19981;-71
2021/08/27 05:45:53;;;;;;;;;;;19.50;89.00;;;;;;2619690;54;19950;-70
2021/08/27 05:48:19;;;;;;;;;;;19.50;88.40;;;;;;2619647;54;19946;-72
2021/08/27 05:50:45;;;;;;;;;;;19.50;88.50;;;;;;2619056;46;19966;-71
2021/08/27 05:53:13;;;;;;;;;;;19.70;87.90;;;;;;2619464;54;19939;-70
2021/08/27 05:55:39;;;;;;;;;;;19.70;88.10;;;;;;2618975;46;19938;-70
2021/08/27 05:58:05;;;;;;;;;;;19.80;87.20;;;;;;2618919;46;20429;-70
2021/08/27 06:00:31;;;;;;;;;;;19.80;86.00;;;;;;2619537;54;19962;-70
2021/08/27 06:02:57;;;;;;;;;;;19.90;87.00;;;;;;2619117;47;19939;-70
2021/08/27 06:05:23;;;;;;;;;;;19.90;87.30;;;;;;2619514;54;20421;-70
2021/08/27 06:07:49;;;;;;;;;;;19.90;87.10;;;;;;2618641;54;20406;-71
2021/08/27 06:10:17;;;;;;;;;;;20.00;87.20;;;;;;2618785;54;19962;-71
2021/08/27 06:12:43;;;;;;;;;;;20.00;87.10;;;;;;2618792;47;20173;-72
2021/08/27 06:15:10;;;;;;;;;;;20.00;86.50;;;;;;2619365;54;19939;-70
2021/08/27 06:17:36;;;;;;;;;;;20.00;86.10;;;;;;2619372;54;19939;-71
2021/08/27 06:20:02;;;;;;;;;;;20.10;85.00;;;;;;2619409;54;19973;-70
2021/08/27 06:22:28;;;;;;;;;;;20.10;83.70;;;;;;2619414;54;19947;-70
2021/08/27 06:24:53;;;;;;;;;;;20.10;84.60;;;;;;2619275;54;20050;-70
2021/08/27 06:27:22;;;;;;;;;;;20.10;84.70;;;;;;2618876;46;19978;-71
2021/08/27 06:29:47;;;;;;;;;;;20.20;85.00;;;;;;2618946;46;19946;-69
2021/08/27 06:32:14;;;;;;;;;;;20.20;83.50;;;;;;2618694;46;19954;-70
2021/08/27 06:34:39;;;;;;;;;;;20.20;84.50;;;;;;2619518;54;19945;-70
2021/08/27 06:37:05;;;;;;;;;;;20.20;83.70;;;;;;2619428;54;19939;-73
2021/08/27 06:39:31;;;;;;;;;;;20.30;83.50;;;;;;2618937;46;19946;-70
2021/08/27 06:41:57;;;;;;;;;;;20.30;84.90;;;;;;2618918;46;19973;-70
2021/08/27 06:44:25;;;;;;;;;;;20.40;85.50;;;;;;2619205;46;19938;-71
2021/08/27 06:46:51;;;;;;;;;;;20.50;84.70;;;;;;2619492;54;19942;-70
2021/08/27 06:49:16;;;;;;;;;;;20.50;86.40;;;;;;2618890;46;20030;-70
2021/08/27 06:51:42;;;;;;;;;;;20.70;85.50;;;;;;2619354;54;19994;-70
2021/08/27 06:54:08;;;;;;;;;;;20.80;84.80;;;;;;2619169;46;19939;-71
2021/08/27 06:56:34;;;;;;;;;;;21.00;86.70;;;;;;2618853;46;19945;-70
2021/08/27 06:59:00;;;;;;;;;;;21.00;87.90;;;;;;2618888;46;19970;-70
2021/08/27 07:01:28;;;;;;;;;;;21.10;86.00;;;;;;2619415;54;19939;-70
2021/08/27 07:03:54;;;;;;;;;;;21.30;86.80;;;;;;2619304;54;19939;-70
2021/08/27 07:06:20;;;;;;;;;;;21.40;85.00;;;;;;2619398;54;20026;-70
2021/08/27 07:08:46;;;;;;;;;;;21.40;82.20;;;;;;2618523;47;19945;-70
2021/08/27 07:11:13;;;;;;;;;;;21.50;84.90;;;;;;2619471;54;19946;-70
2021/08/27 07:13:39;;;;;;;;;;;21.50;88.20;;;;;;2619840;39;20398;-70
2021/08/27 07:16:05;;;;;;;;;;;21.80;90.90;;;;;;2618564;47;19939;-70
2021/08/27 07:18:33;;;;;;;;;;;22.00;91.80;;;;;;2619428;54;19938;-70
2021/08/27 07:20:59;;;;;;;;;;;22.20;92.30;;;;;;2618807;47;20427;-70
2021/08/27 07:23:25;;;;;;;;;;;;;;;;;;2619273;54;19945;-69
2021/08/27 07:25:51;;;;;;;;;;;22.40;93.70;;;;;;2619033;54;19939;-70
2021/08/27 07:28:16;;;;;;;;;;;22.50;95.10;;;;;;2619166;54;19943;-70
2021/08/27 07:30:44;;;;;;;;;;;22.60;95.30;;;;;;2619159;54;19946;-70
2021/08/27 07:33:09;;;;;;;;;;;22.60;96.60;;;;;;2619243;54;19938;-70
2021/08/27 07:35:38;;;;;;;;;;;22.70;97.50;;;;;;2618650;46;20438;-70
2021/08/27 07:38:04;;;;;;;;;;;22.80;97.40;;;;;;2619282;54;19943;-70
2021/08/27 07:40:29;;;;;;;;;;;22.80;97.90;;;;;;2619242;54;20022;-70
2021/08/27 07:42:55;;;;;;;;;;;22.80;97.80;;;;;;2618715;46;19938;-71
2021/08/27 07:45:21;;;;;;;;;;;22.70;97.80;;;;;;2619151;54;19965;-70
2021/08/27 07:47:47;;;;;;;;;;;22.80;98.80;;;;;;2619273;54;19939;-71
2021/08/27 07:50:13;;;;;;;;;;;23.00;98.80;;;;;;2619158;54;20026;-69
2021/08/27 07:52:42;;;;;;;;;;;23.00;99.10;;;;;;2619098;54;19938;-69
2021/08/27 07:55:08;;;;;;;;;;;23.00;99.00;;;;;;2618820;47;19939;-70
2021/08/27 07:57:38;;;;;;;;;;;22.90;99.50;;;;;;2619231;39;20386;-72
2021/08/27 08:00:04;;;;;;;;;;;22.80;99.60;;;;;;2618656;47;19945;-71
2021/08/27 08:02:30;;;;;;;;;;;22.50;99.90;;;;;;2618518;47;20038;-70
2021/08/27 08:04:55;;;;;;;;;;;22.30;99.90;;;;;;2619080;54;19938;-70
2021/08/27 08:07:21;;;;;;;;;;;22.20;99.90;;;;;;2618605;47;19986;-71
2021/08/27 08:09:49;;;;;;;;;;;22.00;99.90;;;;;;2618539;47;19946;-70
2021/08/27 08:12:15;;;;;;;;;;;21.80;99.90;;;;;;2619077;54;20042;-70
2021/08/27 08:14:41;;;;;;;;;;;21.70;99.90;;;;;;2619192;39;20339;-71
2021/08/27 08:17:08;;;;;;;;;;;21.70;99.90;;;;;;2619023;54;20418;-70
2021/08/27 08:19:34;;;;;;;;;;;21.50;99.90;;;;;;2618458;47;19938;-70
2021/08/27 08:22:00;;;;;;;;;;;21.70;99.90;;;;;;2618932;54;19946;-70
2021/08/27 08:24:26;;;;;;;;;;;21.70;99.90;;;;;;2619059;54;19943;-70
2021/08/27 08:26:55;;;;;;;;;;;21.70;99.90;;;;;;2619926;31;20377;-70
2021/08/27 08:29:20;;;;;;;;;;;21.70;99.90;;;;;;2618934;54;19990;-71
2021/08/27 08:31:46;;;;;;;;;;;21.90;99.90;;;;;;2618996;54;19938;-71
2021/08/27 08:34:12;;;;;;;;;;;22.30;99.90;;;;;;2618328;47;19938;-70
2021/08/27 08:36:38;;;;;;;;;;;22.60;99.90;;;;;;2619159;54;19946;-69
2021/08/27 08:39:05;;;;;;;;;;;22.80;99.90;;;;;;2619882;54;19945;-70
2021/08/27 08:41:31;;;;;;;;;;;22.80;99.90;;;;;;2619920;54;19945;-70
2021/08/27 08:43:59;;;;;;;;;;;23.00;99.90;;;;;;2619712;54;19946;-70
2021/08/27 08:46:25;;;;;;;;;;;23.20;99.90;;;;;;2619799;54;19969;-70
2021/08/27 08:48:52;;;;;;;;;;;23.20;99.90;;;;;;2619242;46;19939;-71
2021/08/27 08:51:22;;;;;;;;;;;23.40;99.90;;;;;;2619837;54;19945;-69
2021/08/27 08:53:49;;;;;;;;;;;23.50;99.90;;;;;;2619422;46;19982;-70
2021/08/27 08:56:15;;;;;;;;;;;23.70;99.90;;;;;;2619853;54;19945;-70
2021/08/27 08:58:41;;;;;;;;;;;23.60;99.90;;;;;;2619796;54;19938;-71
2021/08/27 09:01:18;;;;;;;;;;;23.80;99.90;;;;;;2620328;39;20357;-70
2021/08/27 09:03:44;;;;;;;;;;;23.80;99.90;;;;;;2618972;54;19966;-71
2021/08/27 09:06:10;;;;;;;;;;;23.90;99.90;;;;;;2619933;54;19938;-70
2021/08/27 09:08:38;;;;;;;;;;;24.00;99.90;;;;;;2619239;54;19970;-70
2021/08/27 09:11:13;;;;;;;;;;;24.10;99.90;;;;;;2619156;46;19939;-71
2021/08/27 09:13:39;;;;;;;;;;;24.00;99.90;;;;;;2619784;54;19946;-70
2021/08/27 09:16:06;;;;;;;;;;;24.00;99.90;;;;;;2619731;54;20419;-69
2021/08/27 09:18:38;;;;;;;;;;;24.10;99.90;;;;;;2619718;54;19947;-71
2021/08/27 09:21:19;;;;;;;;;;;24.00;99.90;;;;;;2620582;31;20410;-71
2021/08/27 09:23:45;;;;;;;;;;;23.90;99.90;;;;;;2619348;46;20406;-72
2021/08/27 09:26:31;;;;;;;;;;;23.90;99.90;;;;;;2619205;46;19945;-69
2021/08/27 09:28:57;;;;;;;;;;;23.70;99.90;;;;;;2619723;54;20026;-71
2021/08/27 09:31:30;;;;;;;;;;;23.90;99.90;;;;;;2619654;39;20326;-70
2021/08/27 09:33:59;;;;;;;;;;;23.60;99.90;;;;;;2619791;54;19977;-71
2021/08/27 09:36:25;;;;;;;;;;;23.40;99.90;;;;;;2619682;39;20337;-70
2021/08/27 09:38:59;;;;;;;;;;;23.60;99.90;;;;;;2619688;54;19938;-71
2021/08/27 09:41:25;;;;;;;;;;;23.70;99.90;;;;;;2619627;54;19938;-70
2021/08/27 09:43:51;;;;;;;;;;;23.60;99.90;;;;;;2619650;54;19970;-70
2021/08/27 09:46:33;;;;;;;;;;;23.60;99.90;;;;;;2619600;54;20522;-70
2021/08/27 09:49:02;;;;;;;;;;;23.40;99.90;;;;;;2619473;54;19939;-70
2021/08/27 09:51:43;;;;;;;;;;;23.60;99.90;;;;;;2619004;46;19961;-70
2021/08/27 09:54:08;;;;;;;;;;;23.50;99.90;;;;;;2619608;54;19961;-71
2021/08/27 09:56:44;;;;;;;;;;;23.30;99.90;;;;;;2619137;46;19938;-70
2021/08/27 09:59:11;;;;;;;;;;;23.20;99.90;;;;;;2619691;54;19943;-69
2021/08/27 10:01:44;;;;;;;;;;;23.40;99.90;;;;;;2619513;54;19946;-70
2021/08/27 10:04:12;;;;;;;;;;;23.60;99.90;;;;;;2619611;54;20057;-70
2021/08/27 10:06:38;;;;;;;;;;;23.80;99.90;;;;;;2618710;54;19938;-71
2021/08/27 10:09:04;;;;;;;;;;;24.00;99.90;;;;;;2619231;54;19947;-70
2021/08/27 10:11:30;;;;;;;;;;;24.40;99.90;;;;;;2619544;54;19939;-71
2021/08/27 10:13:56;;;;;;;;;;;24.30;99.90;;;;;;2619494;54;19939;-70
2021/08/27 10:16:22;;;;;;;;;;;;;;;;;;2619621;54;20466;-75
2021/08/27 10:18:48;;;;;;;;;;;24.50;98.90;;;;;;2619421;54;20415;-70
2021/08/27 10:21:16;;;;;;;;;;;24.70;98.70;;;;;;2619547;54;19938;-70
2021/08/27 10:23:43;;;;;;;;;;;24.50;98.60;;;;;;2619535;54;20001;-72
2021/08/27 10:26:13;;;;;;;;;;;24.40;99.20;;;;;;2619635;54;19939;-69
2021/08/27 10:28:39;;;;;;;;;;;24.20;96.70;;;;;;2619446;54;19939;-70
2021/08/27 10:31:05;;;;;;;;;;;24.20;96.30;;;;;;2619455;54;19946;-70
2021/08/27 10:33:45;;;;;;;;;;;24.30;96.40;;;;;;2619514;54;19939;-70
2021/08/27 10:36:31;;;;;;;;;;;24.00;93.90;;;;;;2619948;39;20375;-70
2021/08/27 10:39:00;;;;;;;;;;;24.20;95.60;;;;;;2619502;54;20042;-71
2021/08/27 10:41:37;;;;;;;;;;;24.30;95.30;;;;;;2619773;39;20329;-71
2021/08/27 10:44:03;;;;;;;;;;;24.30;96.40;;;;;;2619357;39;21483;-70
2021/08/27 10:46:44;;;;;;;;;;;24.40;97.60;;;;;;2619929;39;20390;-70
2021/08/27 10:49:10;;;;;;;;;;;24.70;97.20;;;;;;2619407;54;19946;-70
2021/08/27 10:51:36;;;;;;;;;;;24.50;96.80;;;;;;2619515;54;19939;-71
2021/08/27 10:54:05;;;;;;;;;;;24.40;96.90;;;;;;2619358;54;19938;-71
2021/08/27 10:56:39;;;;;;;;;;;24.50;97.10;;;;;;2619257;54;19939;-70
2021/08/27 10:59:06;;;;;;;;;;;24.50;97.60;;;;;;2619816;39;20337;-72
2021/08/27 11:01:33;;;;;;;;;;;24.50;97.20;;;;;;2619002;54;20034;-71
2021/08/27 11:04:03;;;;;;;;;;;24.30;96.60;;;;;;2618849;47;19946;-70
2021/08/27 11:06:30;;;;;;;;;;;24.40;97.30;;;;;;2619315;54;19977;-71
2021/08/27 11:09:12;;;;;;;;;;;24.60;98.10;;;;;;2619488;54;19994;-70
2021/08/27 11:11:38;;;;;;;;;;;25.00;97.10;;;;;;2619435;54;19939;-69
2021/08/27 11:14:13;;;;;;;;;;;24.90;95.60;;;;;;2619208;54;19939;-72
2021/08/27 11:16:39;;;;;;;;;;;25.10;96.90;;;;;;2618623;39;20314;-70
2021/08/27 11:19:22;;;;;;;;;;;25.20;96.00;;;;;;2619158;54;19946;-70
2021/08/27 11:21:49;;;;;;;;;;;25.30;95.30;;;;;;2619399;54;20025;-69
2021/08/27 11:24:18;;;;;;;;;;;25.50;95.50;;;;;;2618820;46;20410;-70
2021/08/27 11:26:46;;;;;;;;;;;25.40;95.00;;;;;;2619452;39;20354;-72
2021/08/27 11:29:26;;;;;;;;;;;25.50;94.80;;;;;;2619253;54;19939;-70
2021/08/27 11:31:53;;;;;;;;;;;25.80;95.60;;;;;;2619140;54;19965;-70
2021/08/27 11:34:22;;;;;;;;;;;25.50;95.00;;;;;;2619402;54;19938;-69
2021/08/27 11:36:48;;;;;;;;;;;25.20;95.00;;;;;;2619311;54;19938;-71
2021/08/27 11:39:16;;;;;;;;;;;24.80;96.90;;;;;;2619293;54;19967;-69
2021/08/27 11:41:45;;;;;;;;;;;24.80;95.90;;;;;;2619605;39;20419;-71
2021/08/27 11:44:12;;;;;;;;;;;24.70;96.60;;;;;;2619190;54;19938;-71
2021/08/27 11:46:38;;;;;;;;;;;24.70;95.80;;;;;;2619222;54;19939;-70
2021/08/27 11:49:09;;;;;;;;;;;24.80;96.00;;;;;;2618974;46;19965;-71
2021/08/27 11:51:40;;;;;;;;;;;24.70;95.90;;;;;;2618848;39;20333;-70
2021/08/27 11:54:15;;;;;;;;;;;24.70;96.60;;;;;;2619077;54;20479;-70
2021/08/27 11:56:41;;;;;;;;;;;24.60;96.00;;;;;;2619095;54;19939;-71
2021/08/27 11:59:11;;;;;;;;;;;24.50;96.70;;;;;;2619378;54;19938;-70
2021/08/27 12:01:37;;;;;;;;;;;24.20;96.30;;;;;;2619030;54;19946;-71
2021/08/27 12:04:03;;;;;;;;;;;24.10;96.20;;;;;;2619213;31;20392;-71
2021/08/27 12:06:28;;;;;;;;;;;24.30;97.10;;;;;;2619234;54;19938;-71
2021/08/27 12:08:54;;;;;;;;;;;24.40;96.90;;;;;;2619092;54;19938;-70
2021/08/27 12:11:27;;;;;;;;;;;24.50;96.60;;;;;;2618558;47;19942;-70
2021/08/27 12:13:53;;;;;;;;;;;24.70;96.50;;;;;;2619723;39;20348;-71
2021/08/27 12:16:22;;;;;;;;;;;24.50;94.90;;;;;;2619126;54;19942;-70
2021/08/27 12:18:49;;;;;;;;;;;24.20;95.60;;;;;;2619026;54;19946;-70
2021/08/27 12:21:18;;;;;;;;;;;24.10;95.70;;;;;;2619041;54;19942;-71
2021/08/27 12:23:55;;;;;;;;;;;24.20;96.20;;;;;;2618916;39;20515;-70
2021/08/27 12:26:22;;;;;;;;;;;24.10;94.60;;;;;;2619129;54;20407;-71
2021/08/27 12:28:48;;;;;;;;;;;24.30;95.40;;;;;;2618906;39;20341;-70
2021/08/27 12:31:14;;;;;;;;;;;24.30;95.70;;;;;;2618970;54;19994;-70
2021/08/27 12:33:42;;;;;;;;;;;24.30;95.30;;;;;;2618559;47;19938;-70
2021/08/27 12:36:11;;;;;;;;;;;24.20;94.80;;;;;;2619052;54;19946;-72
2021/08/27 12:38:38;;;;;;;;;;;24.50;94.40;;;;;;2618546;47;19942;-70
2021/08/27 12:41:14;;;;;;;;;;;24.50;93.90;;;;;;2618546;47;19939;-70
2021/08/27 12:43:39;;;;;;;;;;;24.50;94.50;;;;;;2618422;47;19939;-71
2021/08/27 12:46:05;;;;;;;;;;;24.50;94.70;;;;;;2619474;39;20333;-71
2021/08/27 12:48:32;;;;;;;;;;;24.70;95.40;;;;;;2618952;54;19963;-73
2021/08/27 12:51:00;;;;;;;;;;;25.00;94.70;;;;;;2618989;54;19938;-71
2021/08/27 12:53:27;;;;;;;;;;;25.00;94.10;;;;;;2618873;54;19986;-70
2021/08/27 12:56:05;;;;;;;;;;;25.00;94.50;;;;;;2618859;54;19946;-71
2021/08/27 12:58:31;;;;;;;;;;;25.00;95.40;;;;;;2618978;54;20050;-69
2021/08/27 13:01:10;;;;;;;;;;;25.10;94.50;;;;;;2618839;54;20418;-70
2021/08/27 13:03:38;;;;;;;;;;;25.10;95.20;;;;;;2618329;47;19939;-70
2021/08/27 13:06:06;;;;;;;;;;;25.10;94.50;;;;;;2618980;54;19962;-71
2021/08/27 13:08:32;;;;;;;;;;;24.90;94.30;;;;;;2618559;47;19984;-71
2021/08/27 13:10:59;;;;;;;;;;;24.70;94.30;;;;;;2617722;54;20982;-71
2021/08/27 13:13:25;;;;;;;;;;;24.60;94.30;;;;;;2619508;39;20350;-71
2021/08/27 13:16:05;;;;;;;;;;;24.30;94.20;;;;;;2619089;54;19962;-70
2021/08/27 13:18:37;;;;;;;;;;;24.30;94.40;;;;;;2618706;54;19950;-71
2021/08/27 13:21:06;;;;;;;;;;;24.30;94.30;;;;;;2618931;54;19962;-71
2021/08/27 13:23:32;;;;;;;;;;;24.00;94.20;;;;;;2619380;39;20330;-70
2021/08/27 13:25:58;;;;;;;;;;;24.00;94.70;;;;;;2619759;54;20022;-70
2021/08/27 13:28:25;;;;;;;;;;;24.00;95.10;;;;;;2619757;54;19939;-73
2021/08/27 13:30:50;;;;;;;;;;;23.90;94.90;;;;;;2619626;54;19962;-70
2021/08/27 13:33:16;;;;;;;;;;;23.90;95.10;;;;;;2619777;54;19946;-72
2021/08/27 13:35:42;;;;;;;;;;;23.90;95.00;;;;;;2619637;54;19946;-70
2021/08/27 13:38:11;;;;;;;;;;;24.00;94.90;;;;;;2618953;47;19952;-71
2021/08/27 13:40:37;;;;;;;;;;;24.00;94.50;;;;;;2619070;46;19939;-70
2021/08/27 13:43:03;;;;;;;;;;;24.00;94.50;;;;;;2619483;39;20338;-71
2021/08/27 13:45:30;;;;;;;;;;;24.00;94.50;;;;;;2618893;47;19939;-70
2021/08/27 13:47:56;;;;;;;;;;;24.00;94.60;;;;;;2619731;54;19945;-71
2021/08/27 13:50:22;;;;;;;;;;;24.10;94.90;;;;;;2619496;54;20418;-70
2021/08/27 13:52:47;;;;;;;;;;;24.10;93.60;;;;;;2619519;54;19939;-70
2021/08/27 13:55:17;;;;;;;;;;;23.90;94.00;;;;;;2619600;54;19938;-72
2021/08/27 13:57:43;;;;;;;;;;;23.90;94.30;;;;;;2619575;54;20402;-70
2021/08/27 14:00:10;;;;;;;;;;;23.90;94.30;;;;;;2619526;54;19939;-70
2021/08/27 14:02:35;;;;;;;;;;;23.80;95.00;;;;;;2619597;54;20449;-69
2021/08/27 14:05:01;;;;;;;;;;;23.70;94.80;;;;;;2618925;47;19954;-72
2021/08/27 14:07:27;;;;;;;;;;;23.60;95.20;;;;;;2619585;54;19938;-71
2021/08/27 14:09:53;;;;;;;;;;;23.60;94.70;;;;;;2619603;54;20421;-71
2021/08/27 14:12:21;;;;;;;;;;;23.60;95.20;;;;;;2619549;54;19945;-71
2021/08/27 14:14:47;;;;;;;;;;;23.60;95.70;;;;;;2619073;46;19965;-71
2021/08/27 14:17:12;;;;;;;;;;;23.60;96.70;;;;;;2619004;46;20414;-71
2021/08/27 14:19:38;;;;;;;;;;;23.70;96.70;;;;;;2619914;39;20354;-71
2021/08/27 14:22:04;;;;;;;;;;;23.60;96.10;;;;;;2619591;54;20413;-71
2021/08/27 14:24:30;;;;;;;;;;;23.60;96.30;;;;;;2619020;46;19970;-72
2021/08/27 14:26:56;;;;;;;;;;;23.60;96.30;;;;;;2619463;54;20040;-72
2021/08/27 14:29:24;;;;;;;;;;;23.60;96.70;;;;;;2619361;54;19939;-72
2021/08/27 14:31:52;;;;;;;;;;;23.60;96.70;;;;;;2619412;54;19943;-70
2021/08/27 14:34:18;;;;;;;;;;;23.60;96.80;;;;;;2619440;54;20455;-72
2021/08/27 14:36:43;;;;;;;;;;;23.60;97.10;;;;;;2618699;47;19938;-70
2021/08/27 14:39:10;;;;;;;;;;;23.60;97.50;;;;;;2619462;54;19939;-71
2021/08/27 14:41:36;;;;;;;;;;;23.40;97.00;;;;;;2619463;54;19965;-70
2021/08/27 14:44:02;;;;;;;;;;;23.20;97.60;;;;;;2619443;54;20026;-70
2021/08/27 14:46:31;;;;;;;;;;;23.20;97.90;;;;;;2619224;54;20042;-71
2021/08/27 14:48:58;;;;;;;;;;;23.10;97.80;;;;;;2618832;46;19993;-70
2021/08/27 14:51:24;;;;;;;;;;;23.10;98.20;;;;;;2619455;54;19939;-70
2021/08/27 14:53:49;;;;;;;;;;;23.10;98.20;;;;;;2619350;54;19966;-71
2021/08/27 14:56:15;;;;;;;;;;;22.90;98.30;;;;;;2619284;54;19962;-71
2021/08/27 14:58:41;;;;;;;;;;;22.90;98.80;;;;;;2618764;46;19956;-70
2021/08/27 15:01:07;;;;;;;;;;;22.80;98.70;;;;;;2619463;54;19946;-70
2021/08/27 15:03:35;;;;;;;;;;;22.70;99.00;;;;;;2618654;46;19938;-69
2021/08/27 15:06:01;;;;;;;;;;;22.80;98.70;;;;;;2619316;54;19965;-72
2021/08/27 15:08:27;;;;;;;;;;;22.70;98.70;;;;;;2619510;54;19950;-70
2021/08/27 15:10:53;;;;;;;;;;;22.70;98.50;;;;;;2619093;54;19939;-70
2021/08/27 15:13:19;;;;;;;;;;;22.70;98.70;;;;;;2619218;54;19945;-70
2021/08/27 15:15:44;;;;;;;;;;;22.70;99.00;;;;;;2619300;54;19938;-70
2021/08/27 15:18:11;;;;;;;;;;;22.60;99.50;;;;;;2619268;54;19981;-70
2021/08/27 15:20:39;;;;;;;;;;;22.60;99.90;;;;;;2619281;54;20402;-70
2021/08/27 15:23:05;;;;;;;;;;;22.50;99.80;;;;;;2619195;54;19939;-69
2021/08/27 15:25:31;;;;;;;;;;;22.50;99.70;;;;;;2619349;54;19938;-70